Time;durP1;ratioP1;P1;durP2;ratioP2;P2;SDS_P1;SDS_P2;PMS_P1;PMS_P2;Temp;Humidity;BMP_temperature;BMP_pressure;BME280_temperature;BME280_humidity;BME280_pressure;Samples;Min_cycle;Max_cycle;Signal;HPM_P1;HPM_P2
2021/12/23 00:00:31;;;;;;;48.73;20.33;;;;;;;;;;4962301;28;20206;-65
2021/12/23 00:02:58;;;;;;;44.83;21.43;;;;;;;;;;4970912;28;20241;-64
2021/12/23 00:05:26;;;;;;;43.37;19.80;;;;;;;;;;4957010;28;20572;-64
2021/12/23 00:07:53;;;;;;;43.70;19.93;;;;;;;;;;4948602;28;20236;-63
2021/12/23 00:10:20;;;;;;;36.97;19.73;;;;;;;;;;4963370;28;20209;-65
2021/12/23 00:12:48;;;;;;;45.97;21.53;;;;;;;;;;4971932;28;20229;-64
2021/12/23 00:15:23;;;;;;;39.40;19.37;;;;;;;;;;4952899;28;20216;-64
2021/12/23 00:17:58;;;;;;;44.53;21.00;;;;;;;;;;4964567;28;20298;-64
2021/12/23 00:25:52;;;;;;;40.47;19.77;;;;;;;;;;4975677;28;20248;-62
2021/12/23 00:28:20;;;;;;;41.47;19.87;;;;;;;;;;4968259;28;20201;-64
2021/12/23 00:30:48;;;;;;;44.70;20.33;;;;;;;;;;4972638;28;20471;-63
2021/12/23 00:33:15;;;;;;;39.40;19.47;;;;;;;;;;4964197;28;20229;-62
2021/12/23 00:35:42;;;;;;;42.90;20.90;;;;;;;;;;4968648;28;20240;-62
2021/12/23 00:38:18;;;;;;;41.80;19.83;;;;;;;;;;4965769;28;20212;-63
2021/12/23 00:40:45;;;;;;;40.20;19.07;;;;;;;;;;4965075;28;20211;-64
2021/12/23 00:43:13;;;;;;;44.90;20.53;;;;;;;;;;4973214;28;20237;-64
2021/12/23 00:45:40;;;;;;;40.87;19.67;;;;;;;;;;4956082;28;20465;-65
2021/12/23 00:48:08;;;;;;;40.03;19.37;;;;;;;;;;4978255;28;20217;-64
2021/12/23 00:50:35;;;;;;;44.57;19.80;;;;;;;;;;4961625;28;20200;-63
2021/12/23 00:53:06;;;;;;;42.63;19.93;;;;;;;;;;4962033;28;20236;-64
2021/12/23 00:55:34;;;;;;;40.37;19.47;;;;;;;;;;4981680;28;20209;-65
2021/12/23 00:58:02;;;;;;;44.23;19.60;;;;;;;;;;4969703;28;20217;-63
2021/12/23 01:00:30;;;;;;;41.00;19.53;;;;;;;;;;4964883;28;20571;-65
2021/12/23 01:02:59;;;;;;;45.63;21.40;;;;;;;;;;4980198;28;20220;-64
2021/12/23 01:05:28;;;;;;;47.07;21.37;;;;;;;;;;4961208;28;20229;-63
2021/12/23 01:07:55;;;;;;;43.00;20.60;;;;;;;;;;4963285;28;20206;-64
2021/12/23 01:10:24;;;;;;;38.43;19.00;;;;;;;;;;4975624;28;20204;-63
2021/12/23 01:12:59;;;;;;;40.20;19.90;;;;;;;;;;4969565;28;20240;-63
2021/12/23 01:15:49;;;;;;;40.20;19.17;;;;;;;;;;4962144;28;20259;-64
2021/12/23 01:18:19;;;;;;;42.27;20.50;;;;;;;;;;4980518;28;20235;-63
2021/12/23 01:20:52;;;;;;;37.23;18.43;;;;;;;;;;4967850;28;20213;-64
2021/12/23 01:23:24;;;;;;;43.67;19.60;;;;;;;;;;4960206;28;21072;-64
2021/12/23 01:25:52;;;;;;;46.27;19.87;;;;;;;;;;4958940;28;20259;-64
2021/12/23 01:28:20;;;;;;;38.70;19.63;;;;;;;;;;4961044;28;20251;-63
2021/12/23 01:30:48;;;;;;;42.83;18.60;;;;;;;;;;4954092;28;20855;-65
2021/12/23 01:33:15;;;;;;;37.47;18.17;;;;;;;;;;4966539;28;20225;-64
2021/12/23 01:35:45;;;;;;;40.77;19.60;;;;;;;;;;4953722;28;20232;-62
2021/12/23 01:38:12;;;;;;;41.67;20.20;;;;;;;;;;4967005;28;20215;-63
2021/12/23 01:40:39;;;;;;;40.73;19.97;;;;;;;;;;4979925;28;20212;-64
2021/12/23 01:43:07;;;;;;;37.37;17.53;;;;;;;;;;4980078;28;20259;-63
2021/12/23 01:45:35;;;;;;;42.13;19.73;;;;;;;;;;4987496;28;20255;-63
2021/12/23 01:48:03;;;;;;;39.33;18.87;;;;;;;;;;4979408;28;20212;-63
2021/12/23 01:50:30;;;;;;;43.73;19.70;;;;;;;;;;4975829;28;23207;-62
2021/12/23 01:52:59;;;;;;;42.63;19.70;;;;;;;;;;4959800;28;20740;-64
2021/12/23 01:55:27;;;;;;;39.17;18.83;;;;;;;;;;4961082;28;20590;-64
2021/12/23 01:57:54;;;;;;;38.13;19.00;;;;;;;;;;4960031;28;20247;-64
2021/12/23 02:00:24;;;;;;;39.43;19.03;;;;;;;;;;4975551;28;20212;-63
2021/12/23 02:02:53;;;;;;;43.07;19.30;;;;;;;;;;4981524;28;20287;-64
2021/12/23 02:05:21;;;;;;;37.83;18.70;;;;;;;;;;4966232;28;20299;-64
2021/12/23 02:07:48;;;;;;;42.07;19.93;;;;;;;;;;4967719;28;20204;-64
2021/12/23 02:10:16;;;;;;;38.83;20.07;;;;;;;;;;4976198;28;20201;-63
2021/12/23 02:12:44;;;;;;;43.73;19.90;;;;;;;;;;4973604;28;20228;-64
2021/12/23 02:15:13;;;;;;;38.47;19.50;;;;;;;;;;4955179;28;20217;-64
2021/12/23 02:17:40;;;;;;;39.67;19.50;;;;;;;;;;4970965;28;20217;-65
2021/12/23 02:20:13;;;;;;;39.60;19.43;;;;;;;;;;4966527;28;20216;-63
2021/12/23 02:22:41;;;;;;;39.03;19.67;;;;;;;;;;4975686;28;20223;-65
2021/12/23 02:25:09;;;;;;;41.53;20.43;;;;;;;;;;4977807;28;20212;-63
2021/12/23 02:27:37;;;;;;;42.33;20.13;;;;;;;;;;4959887;28;20232;-62
2021/12/23 02:30:06;;;;;;;47.37;21.40;;;;;;;;;;4967754;28;20213;-64
2021/12/23 02:32:35;;;;;;;44.40;20.87;;;;;;;;;;4975262;28;20367;-64
2021/12/23 02:35:03;;;;;;;45.77;20.63;;;;;;;;;;4964811;28;20282;-63
2021/12/23 02:37:31;;;;;;;47.70;22.37;;;;;;;;;;4977148;28;20208;-64
2021/12/23 02:39:58;;;;;;;46.33;20.33;;;;;;;;;;4963262;28;20222;-62
2021/12/23 02:42:26;;;;;;;46.67;21.60;;;;;;;;;;4975554;28;20243;-64
2021/12/23 02:44:54;;;;;;;48.80;21.90;;;;;;;;;;4957354;28;20255;-65
2021/12/23 02:47:21;;;;;;;49.73;22.73;;;;;;;;;;4980841;28;20703;-65
2021/12/23 02:49:49;;;;;;;46.90;20.97;;;;;;;;;;4964392;28;20208;-64
2021/12/23 02:52:16;;;;;;;50.80;21.47;;;;;;;;;;4976560;28;20201;-63
2021/12/23 02:54:44;;;;;;;54.30;23.00;;;;;;;;;;4964735;28;20209;-65
2021/12/23 02:57:11;;;;;;;50.77;22.20;;;;;;;;;;4967434;28;20592;-65
2021/12/23 02:59:39;;;;;;;51.20;22.53;;;;;;;;;;4963640;28;20224;-65
2021/12/23 03:02:06;;;;;;;50.77;21.53;;;;;;;;;;4977082;28;20216;-64
2021/12/23 03:04:34;;;;;;;50.40;22.23;;;;;;;;;;4974860;28;20690;-63
2021/12/23 03:07:01;;;;;;;50.83;22.60;;;;;;;;;;4955778;28;20239;-64
2021/12/23 03:09:28;;;;;;;50.60;22.60;;;;;;;;;;4965312;28;20668;-63
2021/12/23 03:11:56;;;;;;;49.37;21.90;;;;;;;;;;4956182;28;20560;-62
2021/12/23 03:14:24;;;;;;;50.00;22.07;;;;;;;;;;4964097;28;20572;-64
2021/12/23 03:16:51;;;;;;;48.73;21.63;;;;;;;;;;4962146;28;20263;-64
2021/12/23 03:19:19;;;;;;;49.93;23.30;;;;;;;;;;4960763;28;20205;-64
2021/12/23 03:21:46;;;;;;;53.37;23.60;;;;;;;;;;4962511;28;20212;-64
2021/12/23 03:24:15;;;;;;;52.60;23.23;;;;;;;;;;4977630;28;20233;-63
2021/12/23 03:26:42;;;;;;;53.93;23.40;;;;;;;;;;4965265;28;20698;-64
2021/12/23 03:29:11;;;;;;;54.67;23.23;;;;;;;;;;4964327;28;20215;-63
2021/12/23 03:31:39;;;;;;;52.33;23.33;;;;;;;;;;4953867;28;20667;-64
2021/12/23 03:34:06;;;;;;;49.30;22.43;;;;;;;;;;4969259;28;22410;-63
2021/12/23 03:36:34;;;;;;;54.43;23.73;;;;;;;;;;4972643;28;20693;-62
2021/12/23 03:39:01;;;;;;;56.40;23.50;;;;;;;;;;4972444;28;20671;-64
2021/12/23 03:41:28;;;;;;;57.40;24.30;;;;;;;;;;4967779;28;20216;-64
2021/12/23 03:43:56;;;;;;;56.30;23.67;;;;;;;;;;4953013;28;20237;-62
2021/12/23 03:46:23;;;;;;;51.67;22.67;;;;;;;;;;4962838;28;20278;-64
2021/12/23 03:48:51;;;;;;;50.70;23.07;;;;;;;;;;4963235;28;20263;-64
2021/12/23 03:51:19;;;;;;;57.73;25.63;;;;;;;;;;4968480;28;20294;-64
2021/12/23 03:53:46;;;;;;;55.90;24.20;;;;;;;;;;4952440;28;20240;-64
2021/12/23 03:56:14;;;;;;;54.57;23.50;;;;;;;;;;4967576;28;20590;-63
2021/12/23 03:58:42;;;;;;;49.90;23.67;;;;;;;;;;4970074;28;20212;-64
2021/12/23 04:01:09;;;;;;;52.30;23.13;;;;;;;;;;4980279;28;20259;-62
2021/12/23 04:03:37;;;;;;;52.00;22.90;;;;;;;;;;4971489;28;20224;-64
2021/12/23 04:06:04;;;;;;;53.83;23.97;;;;;;;;;;4962674;28;20209;-64
2021/12/23 04:08:33;;;;;;;54.57;24.47;;;;;;;;;;4964690;28;20332;-63
2021/12/23 04:11:01;;;;;;;55.87;24.00;;;;;;;;;;4983423;28;20233;-63
2021/12/23 04:13:29;;;;;;;56.00;24.13;;;;;;;;;;4966566;28;20224;-63
2021/12/23 04:15:56;;;;;;;53.37;25.30;;;;;;;;;;4958943;28;20217;-64
2021/12/23 04:18:24;;;;;;;49.80;21.83;;;;;;;;;;4972257;28;20201;-64
2021/12/23 04:20:54;;;;;;;51.80;23.23;;;;;;;;;;4967942;28;20671;-63
2021/12/23 04:23:22;;;;;;;50.37;22.27;;;;;;;;;;4962943;28;20226;-63
2021/12/23 04:25:49;;;;;;;56.10;24.27;;;;;;;;;;4958891;28;20208;-63
2021/12/23 04:28:17;;;;;;;53.13;23.57;;;;;;;;;;4969271;28;20260;-63
2021/12/23 04:30:45;;;;;;;53.37;24.00;;;;;;;;;;4945406;28;20216;-64
2021/12/23 04:33:13;;;;;;;59.27;24.80;;;;;;;;;;4967587;28;20329;-62
2021/12/23 04:35:40;;;;;;;46.80;23.67;;;;;;;;;;4965685;28;21041;-63
2021/12/23 04:38:08;;;;;;;50.40;22.67;;;;;;;;;;4963740;28;20206;-63
2021/12/23 04:40:36;;;;;;;53.13;24.73;;;;;;;;;;4969530;28;20292;-63
2021/12/23 04:43:04;;;;;;;55.13;24.73;;;;;;;;;;4954811;28;20321;-64
2021/12/23 04:45:32;;;;;;;54.17;22.93;;;;;;;;;;4953677;28;20208;-63
2021/12/23 04:48:00;;;;;;;47.37;22.10;;;;;;;;;;4964422;28;20291;-63
2021/12/23 04:50:27;;;;;;;50.20;22.67;;;;;;;;;;4948776;28;20292;-64
2021/12/23 04:52:55;;;;;;;50.90;22.97;;;;;;;;;;4944981;28;20350;-64
2021/12/23 04:55:23;;;;;;;47.17;22.27;;;;;;;;;;4947680;28;20213;-63
2021/12/23 04:57:50;;;;;;;49.10;21.63;;;;;;;;;;4948145;28;20222;-63
2021/12/23 05:00:19;;;;;;;47.00;20.57;;;;;;;;;;4962594;28;20855;-64
2021/12/23 05:02:47;;;;;;;45.50;21.67;;;;;;;;;;4956442;28;20229;-62
2021/12/23 05:05:15;;;;;;;47.37;21.97;;;;;;;;;;4961394;28;20233;-63
2021/12/23 05:07:43;;;;;;;45.77;20.87;;;;;;;;;;4974115;28;20611;-64
2021/12/23 05:10:11;;;;;;;35.50;18.37;;;;;;;;;;4972981;28;20257;-64
2021/12/23 05:12:44;;;;;;;41.33;19.83;;;;;;;;;;4966286;28;20249;-64
2021/12/23 05:15:11;;;;;;;36.23;18.20;;;;;;;;;;4977921;28;20730;-64
2021/12/23 05:17:39;;;;;;;42.23;18.93;;;;;;;;;;4960090;28;20308;-62
2021/12/23 05:20:07;;;;;;;37.87;18.90;;;;;;;;;;4974487;28;20220;-63
2021/12/23 05:22:35;;;;;;;33.50;16.77;;;;;;;;;;4961306;28;20227;-63
2021/12/23 05:25:04;;;;;;;36.97;17.57;;;;;;;;;;4960884;28;20245;-63
2021/12/23 05:27:31;;;;;;;35.43;16.97;;;;;;;;;;4966531;28;20239;-64
2021/12/23 05:30:01;;;;;;;32.23;16.93;;;;;;;;;;4955085;28;20744;-63
2021/12/23 05:32:30;;;;;;;28.53;15.00;;;;;;;;;;4956377;28;20233;-63
2021/12/23 05:34:58;;;;;;;34.40;15.90;;;;;;;;;;4956837;28;20215;-63
2021/12/23 05:37:25;;;;;;;33.40;16.33;;;;;;;;;;4957924;28;20725;-62
2021/12/23 05:39:52;;;;;;;35.07;16.97;;;;;;;;;;4955000;28;20225;-64
2021/12/23 05:42:20;;;;;;;32.17;16.87;;;;;;;;;;4959174;28;20235;-64
2021/12/23 05:44:47;;;;;;;35.93;17.27;;;;;;;;;;4959977;28;20269;-62
2021/12/23 05:47:20;;;;;;;35.03;17.47;;;;;;;;;;4961876;28;20238;-63
2021/12/23 05:49:47;;;;;;;32.17;16.27;;;;;;;;;;4958841;28;20234;-64
2021/12/23 05:52:15;;;;;;;34.30;17.57;;;;;;;;;;4955951;28;20279;-63
2021/12/23 05:54:42;;;;;;;35.30;17.87;;;;;;;;;;4964478;28;20200;-63
2021/12/23 05:57:10;;;;;;;28.53;15.13;;;;;;;;;;4972641;28;20274;-63
2021/12/23 05:59:37;;;;;;;31.90;16.27;;;;;;;;;;4974544;28;20293;-63
2021/12/23 06:02:06;;;;;;;31.33;15.97;;;;;;;;;;4964780;28;20261;-64
2021/12/23 06:04:34;;;;;;;29.00;15.73;;;;;;;;;;4968939;28;20218;-64
2021/12/23 06:07:02;;;;;;;31.00;14.67;;;;;;;;;;4959311;28;20235;-64
2021/12/23 06:09:30;;;;;;;31.50;16.73;;;;;;;;;;4963481;28;20211;-64
2021/12/23 06:11:57;;;;;;;33.33;17.23;;;;;;;;;;4971150;28;20222;-63
2021/12/23 06:14:25;;;;;;;36.53;17.20;;;;;;;;;;4971183;28;20206;-64
2021/12/23 06:16:52;;;;;;;36.00;18.33;;;;;;;;;;4961870;28;20212;-64
2021/12/23 06:19:19;;;;;;;35.13;17.40;;;;;;;;;;4980763;28;20215;-65
2021/12/23 06:21:47;;;;;;;36.93;18.33;;;;;;;;;;4963880;28;20212;-64
2021/12/23 06:24:14;;;;;;;34.97;17.43;;;;;;;;;;4958483;28;21797;-64
2021/12/23 06:26:42;;;;;;;35.40;17.80;;;;;;;;;;4960919;28;20219;-63
2021/12/23 06:29:09;;;;;;;36.77;18.53;;;;;;;;;;4958153;28;20212;-61
2021/12/23 06:31:37;;;;;;;39.70;19.50;;;;;;;;;;4969997;28;20712;-63
2021/12/23 06:34:05;;;;;;;38.07;18.00;;;;;;;;;;4964651;28;20255;-63
2021/12/23 06:36:33;;;;;;;39.97;19.23;;;;;;;;;;4975432;28;20211;-63
2021/12/23 06:39:00;;;;;;;40.77;20.00;;;;;;;;;;4973797;28;20207;-64
2021/12/23 06:41:28;;;;;;;40.73;18.93;;;;;;;;;;4958650;28;20207;-64
2021/12/23 06:43:55;;;;;;;41.37;20.00;;;;;;;;;;4966417;28;20235;-64
2021/12/23 06:46:23;;;;;;;37.53;18.30;;;;;;;;;;4974939;28;20677;-63
2021/12/23 06:48:50;;;;;;;39.40;18.07;;;;;;;;;;4962239;28;20234;-64
2021/12/23 06:51:17;;;;;;;41.13;19.43;;;;;;;;;;4974855;28;20810;-64
2021/12/23 06:53:45;;;;;;;39.50;19.10;;;;;;;;;;4956366;28;20230;-64
2021/12/23 06:56:16;;;;;;;40.13;19.07;;;;;;;;;;4962499;28;20214;-63
2021/12/23 06:58:48;;;;;;;37.70;18.60;;;;;;;;;;4965168;28;20239;-64
2021/12/23 07:01:20;;;;;;;38.90;18.50;;;;;;;;;;4960954;28;20391;-63
2021/12/23 07:06:28;;;;;;;39.77;19.30;;;;;;;;;;4974128;28;20296;-63
2021/12/23 07:08:55;;;;;;;37.83;19.03;;;;;;;;;;4952296;28;20643;-62
2021/12/23 07:11:23;;;;;;;41.77;21.27;;;;;;;;;;4953852;28;20214;-63
2021/12/23 07:13:50;;;;;;;73.43;35.73;;;;;;;;;;4976263;28;20211;-63
2021/12/23 07:16:18;;;;;;;101.07;43.37;;;;;;;;;;4981054;28;20273;-63
2021/12/23 07:18:46;;;;;;;54.03;26.23;;;;;;;;;;4974838;28;20219;-65
2021/12/23 07:21:13;;;;;;;55.00;29.40;;;;;;;;;;4974476;28;20207;-63
2021/12/23 07:23:40;;;;;;;50.67;27.37;;;;;;;;;;4959424;28;20270;-63
2021/12/23 07:26:08;;;;;;;55.53;31.83;;;;;;;;;;4966221;28;20263;-62
2021/12/23 07:28:38;;;;;;;44.83;23.67;;;;;;;;;;4961536;28;20463;-62
2021/12/23 07:31:06;;;;;;;44.63;23.53;;;;;;;;;;4976205;28;20748;-63
2021/12/23 07:33:34;;;;;;;40.03;19.47;;;;;;;;;;4973249;28;20254;-63
2021/12/23 07:36:04;;;;;;;52.47;25.13;;;;;;;;;;4967229;28;20230;-62
2021/12/23 07:38:33;;;;;;;45.50;22.57;;;;;;;;;;4971655;28;20203;-63
2021/12/23 07:41:00;;;;;;;59.63;30.33;;;;;;;;;;4964356;28;20214;-63
2021/12/23 07:43:43;;;;;;;44.97;22.40;;;;;;;;;;4967365;28;20227;-63
2021/12/23 07:46:10;;;;;;;46.47;22.97;;;;;;;;;;4966606;28;20621;-63
2021/12/23 07:48:38;;;;;;;48.10;25.57;;;;;;;;;;4964431;28;20235;-62
2021/12/23 07:51:06;;;;;;;56.47;27.20;;;;;;;;;;4962069;28;20596;-64
2021/12/23 07:53:33;;;;;;;63.50;33.23;;;;;;;;;;4977901;28;20220;-64
2021/12/23 07:56:03;;;;;;;65.30;36.27;;;;;;;;;;4970197;28;20254;-64
2021/12/23 07:58:30;;;;;;;61.63;32.60;;;;;;;;;;4979233;28;20249;-63
2021/12/23 08:00:57;;;;;;;57.70;32.20;;;;;;;;;;4975773;28;20212;-64
2021/12/23 08:03:25;;;;;;;45.80;24.13;;;;;;;;;;4959374;28;20290;-63
2021/12/23 08:05:52;;;;;;;58.43;29.87;;;;;;;;;;4965377;28;20232;-65
2021/12/23 08:08:20;;;;;;;52.97;25.13;;;;;;;;;;4957636;28;20315;-62
2021/12/23 08:10:51;;;;;;;62.70;31.60;;;;;;;;;;4950032;28;20209;-63
2021/12/23 08:13:19;;;;;;;56.83;30.00;;;;;;;;;;4965218;28;20325;-63
2021/12/23 08:15:46;;;;;;;58.03;30.63;;;;;;;;;;4968614;28;20211;-64
2021/12/23 08:18:14;;;;;;;59.57;33.70;;;;;;;;;;4977376;28;20209;-63
2021/12/23 08:20:41;;;;;;;57.23;29.93;;;;;;;;;;4980632;28;20212;-63
2021/12/23 08:23:09;;;;;;;49.60;23.97;;;;;;;;;;4967756;28;20228;-64
2021/12/23 08:25:36;;;;;;;38.63;20.20;;;;;;;;;;4969739;28;20218;-63
2021/12/23 08:28:04;;;;;;;46.87;22.53;;;;;;;;;;4974406;28;20713;-63
2021/12/23 08:30:34;;;;;;;57.90;29.20;;;;;;;;;;4981948;28;20215;-64
2021/12/23 08:33:02;;;;;;;43.57;23.00;;;;;;;;;;4965606;28;20220;-63
2021/12/23 08:35:29;;;;;;;41.57;23.93;;;;;;;;;;4966801;28;20910;-63
2021/12/23 08:37:57;;;;;;;41.83;21.03;;;;;;;;;;4966158;28;20736;-63
2021/12/23 08:40:26;;;;;;;37.90;20.47;;;;;;;;;;4960913;28;20267;-63
2021/12/23 08:42:56;;;;;;;48.33;26.93;;;;;;;;;;4957149;28;20232;-64
2021/12/23 08:45:24;;;;;;;38.73;21.40;;;;;;;;;;4937215;28;20767;-62
2021/12/23 08:47:54;;;;;;;39.57;22.30;;;;;;;;;;4972468;28;20274;-63
2021/12/23 08:50:22;;;;;;;38.23;20.37;;;;;;;;;;4957271;28;20761;-62
2021/12/23 08:52:49;;;;;;;32.93;18.87;;;;;;;;;;4950294;28;20232;-62
2021/12/23 08:55:17;;;;;;;36.00;18.27;;;;;;;;;;4966293;28;20204;-63
2021/12/23 08:57:45;;;;;;;34.00;18.87;;;;;;;;;;4952442;28;20212;-62
2021/12/23 09:00:14;;;;;;;33.57;18.13;;;;;;;;;;4971997;28;20209;-64
2021/12/23 09:02:42;;;;;;;34.67;19.47;;;;;;;;;;4958393;28;20228;-65
2021/12/23 09:05:10;;;;;;;34.43;18.73;;;;;;;;;;4959504;28;20709;-62
2021/12/23 09:07:38;;;;;;;32.67;17.70;;;;;;;;;;4959519;28;20408;-62
2021/12/23 09:10:07;;;;;;;36.83;18.70;;;;;;;;;;4969050;28;20231;-63
2021/12/23 09:12:34;;;;;;;39.93;21.23;;;;;;;;;;4972997;28;20685;-63
2021/12/23 09:15:02;;;;;;;54.17;27.17;;;;;;;;;;4978503;28;20668;-63
2021/12/23 09:17:30;;;;;;;37.80;20.77;;;;;;;;;;4966665;28;20298;-63
2021/12/23 09:19:57;;;;;;;36.30;20.90;;;;;;;;;;4980401;28;20201;-62
2021/12/23 09:22:25;;;;;;;41.57;22.07;;;;;;;;;;4973813;28;20224;-62
2021/12/23 09:24:56;;;;;;;45.00;22.60;;;;;;;;;;4962437;28;20618;-65
2021/12/23 09:27:36;;;;;;;48.97;24.27;;;;;;;;;;4969592;28;20205;-64
2021/12/23 09:32:54;;;;;;;32.83;18.37;;;;;;;;;;4978480;28;20236;-64
2021/12/23 09:35:42;;;;;;;31.53;17.13;;;;;;;;;;4980036;28;20201;-63
2021/12/23 09:38:09;;;;;;;29.83;16.57;;;;;;;;;;4965209;28;20264;-64
2021/12/23 09:40:38;;;;;;;29.70;15.30;;;;;;;;;;4959536;28;20227;-63
2021/12/23 09:43:07;;;;;;;28.53;15.90;;;;;;;;;;4968091;28;20286;-62
2021/12/23 09:45:35;;;;;;;31.90;17.87;;;;;;;;;;4971731;28;20712;-64
2021/12/23 09:48:02;;;;;;;31.50;17.20;;;;;;;;;;4979809;28;20693;-64
2021/12/23 09:50:32;;;;;;;29.17;16.63;;;;;;;;;;4976457;28;21033;-63
2021/12/23 09:53:01;;;;;;;34.07;18.20;;;;;;;;;;4978544;28;20227;-62
2021/12/23 09:55:30;;;;;;;39.00;20.63;;;;;;;;;;4982698;28;21037;-62
2021/12/23 09:57:59;;;;;;;36.20;20.90;;;;;;;;;;4971183;28;20306;-63
2021/12/23 10:00:29;;;;;;;46.07;26.43;;;;;;;;;;4973825;28;20255;-64
2021/12/23 10:02:58;;;;;;;39.37;22.10;;;;;;;;;;4965502;28;20322;-63
2021/12/23 10:05:27;;;;;;;29.87;18.13;;;;;;;;;;4971707;28;20220;-62
2021/12/23 10:07:56;;;;;;;31.20;18.90;;;;;;;;;;4963377;28;20256;-62
2021/12/23 10:10:30;;;;;;;28.60;15.70;;;;;;;;;;4983451;28;20206;-63
2021/12/23 10:38:13;;;;;;;27.00;15.10;;;;;;;;;;4975765;28;20216;-64
2021/12/23 10:40:42;;;;;;;24.53;14.83;;;;;;;;;;4957246;28;20207;-63
2021/12/23 10:43:13;;;;;;;26.47;15.10;;;;;;;;;;4968000;28;20220;-63
2021/12/23 10:45:52;;;;;;;26.13;15.87;;;;;;;;;;4964265;28;20208;-62
2021/12/23 10:48:20;;;;;;;23.53;14.90;;;;;;;;;;4974326;28;20247;-62
2021/12/23 10:50:51;;;;;;;26.47;15.63;;;;;;;;;;4978457;28;20626;-64
2021/12/23 10:53:54;;;;;;;28.83;16.30;;;;;;;;;;4964165;28;20247;-62
2021/12/23 10:59:16;;;;;;;60.67;29.00;;;;;;;;;;4973210;28;20211;-62
2021/12/23 11:02:35;;;;;;;33.97;18.23;;;;;;;;;;4972158;28;20267;-62
2021/12/23 11:05:14;;;;;;;45.73;21.17;;;;;;;;;;4902893;29;20301;-64
2021/12/23 11:07:51;;;;;;;38.13;19.77;;;;;;;;;;4962660;28;20204;-62
2021/12/23 11:10:41;;;;;;;60.00;28.30;;;;;;;;;;4958474;28;20204;-63
2021/12/23 11:35:47;;;;;;;67.77;33.23;;;;;;;;;;4970170;28;20219;-62
2021/12/23 11:38:47;;;;;;;55.07;32.60;;;;;;;;;;4959090;28;20208;-62
2021/12/23 11:43:54;;;;;;;29.90;17.93;;;;;;;;;;4968576;28;20232;-62
2021/12/23 11:46:25;;;;;;;30.07;16.93;;;;;;;;;;4954126;28;20231;-64
2021/12/23 11:48:55;;;;;;;30.67;18.20;;;;;;;;;;4951284;28;20299;-61
2021/12/23 11:51:45;;;;;;;28.63;16.73;;;;;;;;;;4960193;28;20259;-62
2021/12/23 11:54:20;;;;;;;27.77;15.90;;;;;;;;;;4950158;28;20279;-63
2021/12/23 11:56:50;;;;;;;31.83;17.20;;;;;;;;;;4956057;28;20258;-63
2021/12/23 11:59:19;;;;;;;29.47;16.37;;;;;;;;;;4955899;28;20216;-62
2021/12/23 12:01:55;;;;;;;27.40;16.27;;;;;;;;;;4964827;28;20239;-63
2021/12/23 12:04:22;;;;;;;30.90;15.37;;;;;;;;;;4954797;28;20228;-63
2021/12/23 12:06:51;;;;;;;29.83;17.93;;;;;;;;;;4957756;28;20201;-62
2021/12/23 12:09:23;;;;;;;28.73;16.83;;;;;;;;;;4972547;28;20255;-63
2021/12/23 12:12:00;;;;;;;31.23;17.07;;;;;;;;;;4957531;28;20216;-63
2021/12/23 12:14:34;;;;;;;32.70;19.73;;;;;;;;;;4952166;28;20208;-63
2021/12/23 12:17:20;;;;;;;29.80;17.93;;;;;;;;;;4951340;28;20574;-62
2021/12/23 12:19:57;;;;;;;32.93;18.27;;;;;;;;;;4964732;28;20706;-63
2021/12/23 12:22:43;;;;;;;35.67;18.13;;;;;;;;;;4956830;28;20231;-62
2021/12/23 12:25:11;;;;;;;29.27;17.27;;;;;;;;;;4960588;28;20278;-63
2021/12/23 12:27:43;;;;;;;32.03;17.73;;;;;;;;;;4971453;28;20213;-61
2021/12/23 12:30:11;;;;;;;30.13;16.60;;;;;;;;;;4972423;28;20278;-62
2021/12/23 12:32:39;;;;;;;29.60;16.03;;;;;;;;;;4963082;28;20291;-62
2021/12/23 12:35:16;;;;;;;27.33;15.50;;;;;;;;;;4960859;28;20256;-62
2021/12/23 12:37:44;;;;;;;25.57;14.93;;;;;;;;;;4963481;28;20205;-63
2021/12/23 12:40:12;;;;;;;26.30;15.37;;;;;;;;;;4967813;28;20266;-61
2021/12/23 12:42:45;;;;;;;27.00;15.47;;;;;;;;;;4973612;28;20792;-63
2021/12/23 12:45:24;;;;;;;25.83;14.83;;;;;;;;;;4967796;28;20636;-62
2021/12/23 12:48:00;;;;;;;26.57;15.00;;;;;;;;;;4958236;28;20239;-62
2021/12/23 12:50:28;;;;;;;25.77;15.00;;;;;;;;;;4974299;28;20254;-64
2021/12/23 12:53:05;;;;;;;26.23;15.37;;;;;;;;;;4973706;28;20584;-64
2021/12/23 12:55:36;;;;;;;25.63;14.90;;;;;;;;;;4974630;28;20215;-64
2021/12/23 12:58:04;;;;;;;35.00;19.00;;;;;;;;;;4967542;28;20685;-64
2021/12/23 13:00:39;;;;;;;42.47;21.87;;;;;;;;;;4958800;28;20299;-62
2021/12/23 13:03:12;;;;;;;40.00;20.97;;;;;;;;;;4957445;28;20229;-64
2021/12/23 13:05:42;;;;;;;29.67;15.03;;;;;;;;;;4958421;28;20219;-64
2021/12/23 13:08:19;;;;;;;25.73;13.50;;;;;;;;;;4974080;28;20204;-64
2021/12/23 13:10:49;;;;;;;19.00;11.60;;;;;;;;;;4967051;28;20216;-64
2021/12/23 13:13:26;;;;;;;21.47;13.10;;;;;;;;;;4956203;28;20260;-62
2021/12/23 13:15:58;;;;;;;23.33;13.07;;;;;;;;;;4963468;28;20258;-62
2021/12/23 13:18:25;;;;;;;18.50;11.27;;;;;;;;;;4968659;28;20219;-64
2021/12/23 13:20:57;;;;;;;21.90;11.67;;;;;;;;;;4967551;28;20235;-64
2021/12/23 13:23:40;;;;;;;24.20;13.87;;;;;;;;;;4967279;28;20228;-64
2021/12/23 13:26:12;;;;;;;22.13;13.47;;;;;;;;;;4967239;28;20217;-63
2021/12/23 13:28:59;;;;;;;19.40;12.07;;;;;;;;;;4974309;28;20278;-61
2021/12/23 13:31:29;;;;;;;20.93;12.60;;;;;;;;;;4966763;28;20208;-63
2021/12/23 13:33:58;;;;;;;19.73;12.27;;;;;;;;;;4955770;28;20228;-61
2021/12/23 13:36:33;;;;;;;19.77;11.70;;;;;;;;;;4958825;28;20216;-61
2021/12/23 13:39:08;;;;;;;22.17;13.07;;;;;;;;;;4967608;28;20753;-62
2021/12/23 13:41:39;;;;;;;23.63;13.03;;;;;;;;;;4971837;28;20204;-63
2021/12/23 13:44:15;;;;;;;21.13;12.20;;;;;;;;;;4967577;28;20237;-64
2021/12/23 13:46:44;;;;;;;22.00;12.80;;;;;;;;;;4951035;28;20215;-62
2021/12/23 13:49:11;;;;;;;21.23;12.60;;;;;;;;;;4955257;28;20235;-63
2021/12/23 13:51:40;;;;;;;20.73;12.00;;;;;;;;;;4964505;28;20208;-64
2021/12/23 13:54:17;;;;;;;21.33;12.27;;;;;;;;;;4953603;28;20232;-62
2021/12/23 13:56:46;;;;;;;22.87;12.93;;;;;;;;;;4970069;28;20216;-62
2021/12/23 13:59:21;;;;;;;23.20;13.43;;;;;;;;;;4952988;28;20579;-62
2021/12/23 14:01:54;;;;;;;21.37;12.67;;;;;;;;;;4954438;28;20688;-64
2021/12/23 14:04:28;;;;;;;23.60;13.03;;;;;;;;;;4974117;28;20342;-64
2021/12/23 14:06:56;;;;;;;23.43;13.23;;;;;;;;;;4954396;28;20211;-64
2021/12/23 14:09:34;;;;;;;26.23;14.23;;;;;;;;;;4967755;28;20220;-62
2021/12/23 14:12:01;;;;;;;26.43;14.10;;;;;;;;;;4966745;28;20210;-63
2021/12/23 14:14:29;;;;;;;22.83;12.87;;;;;;;;;;4966039;28;20745;-62
2021/12/23 14:16:56;;;;;;;22.83;12.33;;;;;;;;;;4965402;28;20204;-64
2021/12/23 14:19:41;;;;;;;22.57;12.77;;;;;;;;;;4973658;28;20693;-62
2021/12/23 14:24:56;;;;;;;21.83;12.27;;;;;;;;;;4967485;28;20209;-63
2021/12/23 14:27:23;;;;;;;21.90;12.13;;;;;;;;;;4967587;28;20629;-65
2021/12/23 14:30:00;;;;;;;21.37;12.07;;;;;;;;;;4968296;28;20383;-65
2021/12/23 14:32:28;;;;;;;21.73;12.67;;;;;;;;;;4974678;28;20254;-61
2021/12/23 14:34:55;;;;;;;22.10;13.13;;;;;;;;;;4967086;28;20583;-64
2021/12/23 14:37:23;;;;;;;20.67;13.47;;;;;;;;;;4967230;28;20650;-64
2021/12/23 14:39:55;;;;;;;25.30;12.97;;;;;;;;;;4953784;28;20259;-63
2021/12/23 14:42:24;;;;;;;24.67;14.07;;;;;;;;;;4957312;28;20659;-63
2021/12/23 14:44:59;;;;;;;23.17;14.27;;;;;;;;;;4972155;28;20212;-65
2021/12/23 14:47:29;;;;;;;22.87;13.40;;;;;;;;;;4949586;28;20200;-63
2021/12/23 14:52:41;;;;;;;22.60;13.20;;;;;;;;;;4966670;28;20321;-63
2021/12/23 14:55:16;;;;;;;28.50;15.73;;;;;;;;;;4960414;28;20351;-62
2021/12/23 14:57:50;;;;;;;29.30;16.40;;;;;;;;;;4959371;28;20207;-63
2021/12/23 15:00:22;;;;;;;27.10;15.37;;;;;;;;;;4946142;28;20216;-63
2021/12/23 15:02:50;;;;;;;21.20;13.40;;;;;;;;;;4963185;28;20225;-63
2021/12/23 15:05:19;;;;;;;24.30;14.13;;;;;;;;;;4970698;28;20208;-62
2021/12/23 15:07:46;;;;;;;22.93;13.93;;;;;;;;;;4941108;28;20701;-63
2021/12/23 15:10:13;;;;;;;22.60;13.77;;;;;;;;;;4945932;28;20698;-65
2021/12/23 15:12:43;;;;;;;22.73;12.63;;;;;;;;;;4954119;28;20291;-62
2021/12/23 15:15:10;;;;;;;21.97;12.97;;;;;;;;;;4950934;28;20553;-64
2021/12/23 15:17:56;;;;;;;22.70;13.63;;;;;;;;;;4949360;28;20221;-62
2021/12/23 15:20:28;;;;;;;20.63;12.80;;;;;;;;;;4934639;28;20204;-64
2021/12/23 15:23:02;;;;;;;18.20;11.50;;;;;;;;;;4961143;28;20243;-63
2021/12/23 15:25:40;;;;;;;21.83;12.27;;;;;;;;;;4958577;28;20205;-63
2021/12/23 15:28:08;;;;;;;19.87;12.17;;;;;;;;;;4960103;28;20630;-63
2021/12/23 15:30:36;;;;;;;19.50;12.30;;;;;;;;;;4948175;28;20232;-63
2021/12/23 15:33:08;;;;;;;21.80;11.47;;;;;;;;;;4965460;28;20528;-64
2021/12/23 15:35:37;;;;;;;20.30;10.87;;;;;;;;;;4960570;28;20215;-63
2021/12/23 15:38:05;;;;;;;22.17;12.50;;;;;;;;;;4950687;28;20253;-63
2021/12/23 15:40:34;;;;;;;18.53;11.73;;;;;;;;;;4953470;28;20208;-63